createdAt,value
2023-04-16T00:00:10.557Z,100.00
2023-04-16T00:02:38.310Z,100.00
2023-04-16T00:05:05.172Z,100.00
2023-04-16T00:07:34.706Z,100.00
2023-04-16T00:10:12.159Z,100.00
2023-04-16T00:12:39.168Z,100.00
2023-04-16T00:15:06.125Z,100.00
2023-04-16T00:17:47.048Z,100.00
2023-04-16T00:20:14.201Z,100.00
2023-04-16T00:22:42.238Z,100.00
2023-04-16T00:25:09.079Z,100.00
2023-04-16T00:27:41.651Z,100.00
2023-04-16T00:30:09.451Z,100.00
2023-04-16T00:32:37.111Z,100.00
2023-04-16T00:35:06.667Z,100.00
2023-04-16T00:37:33.627Z,100.00
2023-04-16T00:40:01.142Z,100.00
2023-04-16T00:42:28.165Z,100.00
2023-04-16T00:44:54.551Z,100.00
2023-04-16T00:47:21.730Z,100.00
2023-04-16T00:49:48.586Z,100.00
2023-04-16T00:52:15.376Z,100.00
2023-04-16T00:54:41.913Z,100.00
2023-04-16T00:57:08.968Z,100.00
2023-04-16T00:59:35.607Z,100.00
2023-04-16T01:02:02.201Z,100.00
2023-04-16T01:04:31.018Z,100.00
2023-04-16T01:06:57.544Z,100.00
2023-04-16T01:09:24.019Z,100.00
2023-04-16T01:11:50.446Z,100.00
2023-04-16T01:14:16.891Z,100.00
2023-04-16T01:16:43.332Z,100.00
2023-04-16T01:19:09.913Z,100.00
2023-04-16T01:21:36.514Z,100.00
2023-04-16T01:24:04.637Z,100.00
2023-04-16T01:26:31.528Z,100.00
2023-04-16T01:28:59.796Z,100.00
2023-04-16T01:31:26.251Z,100.00
2023-04-16T01:33:52.727Z,100.00
2023-04-16T01:36:19.278Z,100.00
2023-04-16T01:38:45.903Z,100.00
2023-04-16T01:41:12.339Z,100.00
2023-04-16T01:43:40.279Z,100.00
2023-04-16T01:46:20.830Z,100.00
2023-04-16T01:48:47.311Z,100.00
2023-04-16T01:51:13.702Z,100.00
2023-04-16T01:53:40.114Z,100.00
2023-04-16T01:56:06.799Z,100.00
2023-04-16T01:58:34.005Z,100.00
2023-04-16T02:01:00.714Z,100.00
2023-04-16T02:03:27.458Z,100.00
2023-04-16T02:05:54.707Z,100.00
2023-04-16T02:08:21.185Z,100.00
2023-04-16T02:10:49.320Z,100.00
2023-04-16T02:13:16.566Z,100.00
2023-04-16T02:15:50.740Z,100.00
2023-04-16T02:18:17.432Z,100.00
2023-04-16T02:20:45.764Z,100.00
2023-04-16T02:23:14.967Z,100.00
2023-04-16T02:25:42.833Z,100.00
2023-04-16T02:28:10.881Z,100.00
2023-04-16T02:30:38.119Z,100.00
2023-04-16T02:33:07.331Z,100.00
2023-04-16T02:35:38.319Z,100.00
2023-04-16T02:38:05.768Z,100.00
2023-04-16T02:40:32.496Z,100.00
2023-04-16T02:42:58.955Z,100.00
2023-04-16T02:45:25.574Z,100.00
2023-04-16T02:47:52.702Z,100.00
2023-04-16T02:50:19.194Z,100.00
2023-04-16T02:52:45.834Z,100.00
2023-04-16T02:55:12.340Z,100.00
2023-04-16T02:57:38.833Z,100.00
2023-04-16T03:00:05.989Z,100.00
2023-04-16T03:02:32.723Z,100.00
2023-04-16T03:04:59.281Z,100.00
2023-04-16T03:07:26.075Z,100.00
2023-04-16T03:09:52.529Z,100.00
2023-04-16T03:12:18.924Z,100.00
2023-04-16T03:14:45.333Z,100.00
2023-04-16T03:17:12.091Z,100.00
2023-04-16T03:19:40.242Z,100.00
2023-04-16T03:22:09.546Z,100.00
2023-04-16T03:24:37.579Z,100.00
2023-04-16T03:27:07.125Z,100.00
2023-04-16T03:29:36.910Z,100.00
2023-04-16T03:32:06.313Z,100.00
2023-04-16T03:34:34.688Z,100.00
2023-04-16T03:37:23.221Z,100.00
2023-04-16T03:39:50.675Z,100.00
2023-04-16T03:42:18.067Z,100.00
2023-04-16T03:44:44.656Z,100.00
2023-04-16T03:47:14.201Z,100.00
2023-04-16T03:49:48.638Z,100.00
2023-04-16T03:52:17.583Z,100.00
2023-04-16T03:54:44.607Z,100.00
2023-04-16T03:57:11.156Z,100.00
2023-04-16T03:59:43.714Z,100.00
2023-04-16T04:02:12.172Z,100.00
2023-04-16T04:04:39.647Z,100.00
2023-04-16T04:07:09.168Z,100.00
2023-04-16T04:09:35.692Z,100.00
2023-04-16T04:12:07.362Z,100.00
2023-04-16T04:14:39.610Z,100.00
2023-04-16T04:17:12.113Z,100.00
2023-04-16T04:19:44.515Z,100.00
2023-04-16T04:22:22.676Z,100.00
2023-04-16T04:24:50.139Z,100.00
2023-04-16T04:27:17.543Z,100.00
2023-04-16T04:29:43.937Z,100.00
2023-04-16T04:32:12.079Z,100.00
2023-04-16T04:34:40.058Z,100.00
2023-04-16T04:37:09.027Z,100.00
2023-04-16T04:39:35.481Z,100.00
2023-04-16T04:42:08.376Z,100.00
2023-04-16T04:44:35.627Z,100.00
2023-04-16T04:47:03.129Z,100.00
2023-04-16T04:49:31.767Z,100.00
2023-04-16T04:52:00.101Z,100.00
2023-04-16T04:54:30.841Z,100.00
2023-04-16T04:56:58.220Z,100.00
2023-04-16T04:59:32.002Z,100.00
2023-04-16T05:02:00.340Z,100.00
2023-04-16T05:04:26.946Z,100.00
2023-04-16T05:06:55.048Z,100.00
2023-04-16T05:09:21.432Z,100.00
2023-04-16T05:11:50.744Z,100.00
2023-04-16T05:14:18.154Z,100.00
2023-04-16T05:16:45.607Z,100.00
2023-04-16T05:19:13.060Z,100.00
2023-04-16T05:21:41.081Z,100.00
2023-04-16T05:24:09.211Z,100.00
2023-04-16T05:26:35.823Z,100.00
2023-04-16T05:29:04.585Z,100.00
2023-04-16T05:31:32.647Z,100.00
2023-04-16T05:34:00.023Z,100.00
2023-04-16T05:36:29.006Z,100.00
2023-04-16T05:38:56.106Z,100.00
2023-04-16T05:41:22.702Z,100.00
2023-04-16T05:43:55.031Z,100.00
2023-04-16T05:46:23.120Z,100.00
2023-04-16T05:48:51.873Z,100.00
2023-04-16T05:51:19.481Z,100.00
2023-04-16T05:53:45.957Z,100.00
2023-04-16T05:56:23.340Z,100.00
2023-04-16T05:59:06.526Z,100.00
2023-04-16T06:01:34.520Z,100.00
2023-04-16T06:04:11.252Z,100.00
2023-04-16T06:06:37.980Z,100.00
2023-04-16T06:09:05.269Z,100.00
2023-04-16T06:11:54.547Z,100.00
2023-04-16T06:14:57.048Z,100.00
2023-04-16T06:17:27.132Z,100.00
2023-04-16T06:20:10.036Z,100.00
2023-04-16T06:22:39.180Z,100.00
2023-04-16T06:25:11.604Z,100.00
2023-04-16T06:27:50.432Z,100.00
2023-04-16T06:30:16.964Z,100.00
2023-04-16T06:32:44.443Z,100.00
2023-04-16T06:35:22.182Z,100.00
2023-04-16T06:37:49.720Z,100.00
2023-04-16T06:40:19.627Z,100.00
2023-04-16T06:43:05.242Z,100.00
2023-04-16T06:45:31.866Z,100.00
2023-04-16T06:47:59.135Z,100.00
2023-04-16T06:50:28.188Z,100.00
2023-04-16T06:52:55.245Z,100.00
2023-04-16T06:55:21.880Z,100.00
2023-04-16T06:57:48.468Z,100.00
2023-04-16T07:00:15.098Z,100.00
2023-04-16T07:02:42.640Z,100.00
2023-04-16T07:05:09.331Z,100.00
2023-04-16T07:07:36.625Z,100.00
2023-04-16T07:10:03.399Z,100.00
2023-04-16T07:12:31.576Z,100.00
2023-04-16T07:14:59.131Z,100.00
2023-04-16T07:17:34.770Z,100.00
2023-04-16T07:20:01.314Z,100.00
2023-04-16T07:22:28.518Z,100.00
2023-04-16T07:24:56.526Z,100.00
2023-04-16T07:27:23.101Z,100.00
2023-04-16T07:29:50.947Z,100.00
2023-04-16T07:32:18.174Z,100.00
2023-04-16T07:34:44.660Z,100.00
2023-04-16T07:37:11.211Z,100.00
2023-04-16T07:39:37.731Z,100.00
2023-04-16T07:42:04.246Z,100.00
2023-04-16T07:44:30.796Z,100.00
2023-04-16T07:46:57.250Z,100.00
2023-04-16T07:49:23.753Z,100.00
2023-04-16T07:51:50.267Z,100.00
2023-04-16T07:54:16.856Z,100.00
2023-04-16T07:56:43.757Z,100.00
2023-04-16T07:59:21.916Z,100.00
2023-04-16T08:01:50.004Z,100.00
2023-04-16T08:04:22.851Z,100.00
2023-04-16T08:06:49.561Z,100.00
2023-04-16T08:09:16.122Z,100.00
2023-04-16T08:11:42.885Z,100.00
2023-04-16T08:14:09.270Z,100.00
2023-04-16T08:16:35.800Z,100.00
2023-04-16T08:19:02.371Z,100.00
2023-04-16T08:21:29.294Z,100.00
2023-04-16T08:23:55.970Z,100.00
2023-04-16T08:26:22.377Z,100.00
2023-04-16T08:28:48.743Z,100.00
2023-04-16T08:31:15.761Z,100.00
2023-04-16T08:33:42.205Z,100.00
2023-04-16T08:36:09.130Z,100.00
2023-04-16T08:38:35.603Z,100.00
2023-04-16T08:41:05.674Z,100.00
2023-04-16T08:43:38.238Z,100.00
2023-04-16T08:46:05.784Z,100.00
2023-04-16T08:48:34.093Z,100.00
2023-04-16T08:51:01.903Z,100.00
2023-04-16T08:53:39.323Z,100.00
2023-04-16T08:56:09.526Z,100.00
2023-04-16T08:58:37.796Z,100.00
2023-04-16T09:01:04.638Z,100.00
2023-04-16T09:03:34.774Z,100.00
2023-04-16T09:06:04.409Z,100.00
2023-04-16T09:08:31.371Z,100.00
2023-04-16T09:10:59.416Z,100.00
2023-04-16T09:13:27.000Z,100.00
2023-04-16T09:15:54.304Z,100.00
2023-04-16T09:18:21.319Z,100.00
2023-04-16T09:20:49.788Z,100.00
2023-04-16T09:23:16.246Z,100.00
2023-04-16T09:25:42.900Z,100.00
2023-04-16T09:28:10.304Z,100.00
2023-04-16T09:30:37.535Z,100.00
2023-04-16T09:33:25.008Z,99.93
2023-04-16T09:35:52.934Z,99.43
2023-04-16T09:38:20.760Z,99.21
2023-04-16T09:40:47.634Z,99.32
2023-04-16T09:43:16.275Z,99.79
2023-04-16T09:45:49.020Z,99.73
2023-04-16T09:48:15.689Z,99.71
2023-04-16T09:50:51.727Z,99.39
2023-04-16T09:53:31.025Z,99.66
2023-04-16T09:55:58.990Z,99.64
2023-04-16T09:58:26.078Z,99.00
2023-04-16T10:00:57.400Z,98.76
2023-04-16T10:03:32.241Z,99.41
2023-04-16T10:06:19.737Z,99.26
2023-04-16T10:08:50.827Z,99.29
2023-04-16T10:11:19.355Z,98.60
2023-04-16T10:13:46.369Z,98.59
2023-04-16T10:16:13.178Z,98.76
2023-04-16T10:18:42.353Z,98.93
2023-04-16T10:21:11.948Z,99.00
2023-04-16T10:23:39.979Z,98.50
2023-04-16T10:26:06.792Z,98.03
2023-04-16T10:28:35.339Z,98.28
2023-04-16T10:31:05.606Z,98.18
2023-04-16T10:33:34.461Z,97.59
2023-04-16T10:36:09.756Z,97.10
2023-04-16T10:38:40.409Z,97.81
2023-04-16T10:41:08.701Z,97.38
2023-04-16T10:43:44.976Z,97.90
2023-04-16T10:46:20.572Z,97.95
2023-04-16T10:48:50.365Z,97.91
2023-04-16T10:51:36.466Z,97.38
2023-04-16T10:54:14.510Z,96.89
2023-04-16T10:56:40.974Z,97.23
2023-04-16T10:59:10.528Z,97.44
2023-04-16T11:01:42.356Z,96.76
2023-04-16T11:04:21.279Z,96.84
2023-04-16T11:07:15.409Z,96.19
2023-04-16T11:10:00.000Z,96.76
2023-04-16T11:12:29.933Z,95.99
2023-04-16T11:15:04.766Z,96.10
2023-04-16T11:17:39.510Z,95.80
2023-04-16T11:20:17.779Z,96.12
2023-04-16T11:22:57.268Z,95.82
2023-04-16T11:25:24.777Z,96.51
2023-04-16T11:27:52.045Z,95.82
2023-04-16T11:30:28.187Z,95.60
2023-04-16T11:32:54.803Z,94.87
2023-04-16T11:35:21.857Z,95.10
2023-04-16T11:37:48.739Z,96.10
2023-04-16T11:40:15.641Z,95.89
2023-04-16T11:42:42.784Z,95.57
2023-04-16T11:45:11.280Z,95.30
2023-04-16T11:47:51.765Z,94.95
2023-04-16T11:50:20.694Z,94.98
2023-04-16T11:52:48.052Z,95.32
2023-04-16T11:55:15.391Z,95.10
2023-04-16T11:57:41.842Z,94.15
2023-04-16T12:00:13.859Z,94.82
2023-04-16T12:02:50.894Z,94.13
2023-04-16T12:05:39.031Z,94.18
2023-04-16T12:08:08.599Z,94.25
2023-04-16T12:10:37.283Z,94.34
2023-04-16T12:13:12.607Z,93.56
2023-04-16T12:15:47.579Z,93.27
2023-04-16T12:18:16.219Z,93.27
2023-04-16T12:20:44.150Z,92.60
2023-04-16T12:23:27.847Z,93.18
2023-04-16T12:25:54.946Z,93.06
2023-04-16T12:28:36.578Z,93.19
2023-04-16T12:31:03.414Z,92.58
2023-04-16T12:33:30.432Z,93.10
2023-04-16T12:35:57.329Z,92.59
2023-04-16T12:38:25.365Z,93.75
2023-04-16T12:40:52.326Z,93.28
2023-04-16T12:43:19.796Z,93.72
2023-04-16T12:45:47.459Z,92.97
2023-04-16T12:48:13.918Z,92.80
2023-04-16T12:50:40.418Z,92.87
2023-04-16T12:53:07.054Z,93.64
2023-04-16T12:55:33.567Z,92.85
2023-04-16T12:58:00.010Z,92.51
2023-04-16T13:00:26.441Z,92.40
2023-04-16T13:02:53.039Z,92.28
2023-04-16T13:05:19.741Z,92.02
2023-04-16T13:07:46.485Z,92.11
2023-04-16T13:10:13.440Z,90.79
2023-04-16T13:12:39.985Z,91.28
2023-04-16T13:15:06.885Z,90.91
2023-04-16T13:17:33.270Z,91.18
2023-04-16T13:19:59.639Z,91.96
2023-04-16T13:22:26.119Z,92.44
2023-04-16T13:24:52.932Z,91.52
2023-04-16T13:27:20.395Z,91.18
2023-04-16T13:29:47.312Z,90.94
2023-04-16T13:32:14.917Z,91.54
2023-04-16T13:34:41.469Z,90.59
2023-04-16T13:37:07.929Z,91.09
2023-04-16T13:39:34.347Z,91.02
2023-04-16T13:42:01.010Z,91.18
2023-04-16T13:44:27.436Z,90.78
2023-04-16T13:46:53.924Z,91.03
2023-04-16T13:49:20.399Z,90.15
2023-04-16T13:51:46.951Z,90.87
2023-04-16T13:54:13.453Z,91.00
2023-04-16T13:56:40.804Z,91.37
2023-04-16T13:59:08.223Z,90.20
2023-04-16T14:01:34.906Z,90.65
2023-04-16T14:04:06.106Z,90.18
2023-04-16T14:06:33.884Z,89.46
2023-04-16T14:09:00.416Z,89.36
2023-04-16T14:11:26.868Z,89.90
2023-04-16T14:13:53.384Z,89.41
2023-04-16T14:16:19.933Z,87.70
2023-04-16T14:18:47.494Z,87.80
2023-04-16T14:21:14.803Z,87.68
2023-04-16T14:23:41.781Z,87.44
2023-04-16T14:26:08.301Z,86.68
2023-04-16T14:28:35.701Z,86.86
2023-04-16T14:31:02.379Z,86.12
2023-04-16T14:33:28.930Z,86.60
2023-04-16T14:35:55.537Z,86.25
2023-04-16T14:38:21.991Z,86.39
2023-04-16T14:40:48.670Z,87.11
2023-04-16T14:43:15.967Z,86.98
2023-04-16T14:45:42.521Z,87.40
2023-04-16T14:48:09.036Z,87.33
2023-04-16T14:50:38.964Z,87.77
2023-04-16T14:53:05.949Z,88.07
2023-04-16T14:55:32.612Z,87.21
2023-04-16T14:57:59.644Z,87.70
2023-04-16T15:00:26.388Z,87.71
2023-04-16T15:02:54.282Z,86.63
2023-04-16T15:05:21.167Z,86.54
2023-04-16T15:07:47.653Z,86.91
2023-04-16T15:10:14.096Z,86.95
2023-04-16T15:12:40.701Z,86.21
2023-04-16T15:15:08.476Z,85.76
2023-04-16T15:17:35.421Z,86.29
2023-04-16T15:20:02.089Z,85.55
2023-04-16T15:22:28.573Z,85.07
2023-04-16T15:24:55.026Z,84.70
2023-04-16T15:27:21.407Z,85.49
2023-04-16T15:29:49.473Z,84.89
2023-04-16T15:32:16.206Z,85.52
2023-04-16T15:34:42.747Z,85.84
2023-04-16T15:37:09.681Z,85.73
2023-04-16T15:39:36.260Z,85.55
2023-04-16T15:42:07.088Z,84.97
2023-04-16T15:44:34.422Z,84.95
2023-04-16T15:47:01.121Z,85.83
2023-04-16T15:49:27.559Z,85.89
2023-04-16T15:51:54.024Z,86.19
2023-04-16T15:54:21.498Z,86.51
2023-04-16T15:56:48.033Z,86.90
2023-04-16T15:59:14.528Z,86.15
2023-04-16T16:01:41.068Z,86.83
2023-04-16T16:04:08.196Z,86.82
2023-04-16T16:06:35.701Z,87.21
2023-04-16T16:09:02.147Z,87.24
2023-04-16T16:11:28.666Z,86.54
2023-04-16T16:13:55.270Z,86.98
2023-04-16T16:16:22.372Z,86.87
2023-04-16T16:18:48.926Z,87.33
2023-04-16T16:21:15.502Z,87.51
2023-04-16T16:23:42.047Z,87.64
2023-04-16T16:26:09.189Z,87.37
2023-04-16T16:28:37.821Z,88.17
2023-04-16T16:31:05.862Z,87.10
2023-04-16T16:33:33.050Z,87.08
2023-04-16T16:35:59.677Z,87.48
2023-04-16T16:38:26.180Z,87.38
2023-04-16T16:40:52.598Z,87.47
2023-04-16T16:43:20.292Z,88.04
2023-04-16T16:45:47.298Z,88.17
2023-04-16T16:48:13.904Z,88.48
2023-04-16T16:50:41.346Z,88.51
2023-04-16T16:53:07.966Z,89.02
2023-04-16T16:55:35.531Z,88.86
2023-04-16T16:58:02.149Z,89.59
2023-04-16T17:00:28.808Z,89.19
2023-04-16T17:02:55.481Z,89.84
2023-04-16T17:05:22.194Z,90.58
2023-04-16T17:07:48.676Z,89.87
2023-04-16T17:10:20.178Z,90.21
2023-04-16T17:12:48.695Z,90.30
2023-04-16T17:15:16.117Z,90.68
2023-04-16T17:17:43.239Z,90.56
2023-04-16T17:20:12.446Z,91.84
2023-04-16T17:22:39.766Z,90.91
2023-04-16T17:25:10.191Z,91.48
2023-04-16T17:27:36.810Z,92.01
2023-04-16T17:30:05.409Z,92.20
2023-04-16T17:32:32.890Z,91.80
2023-04-16T17:35:01.728Z,92.23
2023-04-16T17:37:28.527Z,92.03
2023-04-16T17:39:56.023Z,92.32
2023-04-16T17:42:22.869Z,93.07
2023-04-16T17:44:49.664Z,92.40
2023-04-16T17:47:16.237Z,92.66
2023-04-16T17:49:42.951Z,93.13
2023-04-16T17:52:09.490Z,93.47
2023-04-16T17:54:35.944Z,93.63
2023-04-16T17:57:02.386Z,93.56
2023-04-16T17:59:29.043Z,93.75
2023-04-16T18:01:56.599Z,93.63
2023-04-16T18:04:23.372Z,94.02
2023-04-16T18:06:50.368Z,94.07
2023-04-16T18:09:16.914Z,93.60
2023-04-16T18:11:45.827Z,94.84
2023-04-16T18:14:16.706Z,94.51
2023-04-16T18:16:43.453Z,95.17
2023-04-16T18:19:10.010Z,94.26
2023-04-16T18:21:36.522Z,94.59
2023-04-16T18:24:03.494Z,95.00
2023-04-16T18:26:30.297Z,95.19
2023-04-16T18:28:57.033Z,95.86
2023-04-16T18:31:23.605Z,96.31
2023-04-16T18:33:57.611Z,95.90
2023-04-16T18:36:26.441Z,96.60
2023-04-16T18:39:01.496Z,95.98
2023-04-16T18:41:29.425Z,96.99
2023-04-16T18:43:56.010Z,97.02
2023-04-16T18:46:22.666Z,96.51
2023-04-16T18:48:49.158Z,96.75
2023-04-16T18:51:16.482Z,96.82
2023-04-16T18:53:45.292Z,96.43
2023-04-16T18:56:11.862Z,96.66
2023-04-16T18:58:41.373Z,96.76
2023-04-16T19:01:11.263Z,97.19
2023-04-16T19:03:38.215Z,96.94
2023-04-16T19:06:05.220Z,97.58
2023-04-16T19:08:31.743Z,97.67
2023-04-16T19:10:58.341Z,97.08
2023-04-16T19:13:24.867Z,97.24
2023-04-16T19:15:51.390Z,96.96
2023-04-16T19:18:17.881Z,97.38
2023-04-16T19:20:44.366Z,97.24
2023-04-16T19:23:11.502Z,97.65
2023-04-16T19:25:39.514Z,96.88
2023-04-16T19:28:06.117Z,97.65
2023-04-16T19:30:32.707Z,97.59
2023-04-16T19:32:59.248Z,97.84
2023-04-16T19:35:25.948Z,97.66
2023-04-16T19:37:52.551Z,97.45
2023-04-16T19:40:19.164Z,97.36
2023-04-16T19:42:45.876Z,97.43
2023-04-16T19:45:12.415Z,97.17
2023-04-16T19:47:39.092Z,96.92
2023-04-16T19:50:06.440Z,97.96
2023-04-16T19:52:38.642Z,97.92
2023-04-16T19:55:06.576Z,97.85
2023-04-16T19:57:33.886Z,98.42
2023-04-16T20:00:00.493Z,98.20
2023-04-16T20:02:27.409Z,97.78
2023-04-16T20:04:54.091Z,97.96
2023-04-16T20:07:20.587Z,98.57
2023-04-16T20:09:47.170Z,98.86
2023-04-16T20:12:14.233Z,99.19
2023-04-16T20:14:41.971Z,98.73
2023-04-16T20:17:10.056Z,99.62
2023-04-16T20:19:40.604Z,98.92
2023-04-16T20:22:07.815Z,99.55
2023-04-16T20:24:34.376Z,98.88
2023-04-16T20:27:01.670Z,98.65
2023-04-16T20:29:28.387Z,98.48
2023-04-16T20:31:54.849Z,98.84
2023-04-16T20:34:21.382Z,98.52
2023-04-16T20:36:48.054Z,99.22
2023-04-16T20:39:14.736Z,99.17
2023-04-16T20:41:44.322Z,99.03
2023-04-16T20:44:17.983Z,98.97
2023-04-16T20:46:49.665Z,99.20
2023-04-16T20:49:17.631Z,99.16
2023-04-16T20:51:44.806Z,99.44
2023-04-16T20:54:11.521Z,99.37
2023-04-16T20:56:38.070Z,99.68
2023-04-16T20:59:05.611Z,99.39
2023-04-16T21:01:34.016Z,100.00
2023-04-16T21:04:01.535Z,99.57
2023-04-16T21:06:28.203Z,99.99
2023-04-16T21:08:54.841Z,99.62
2023-04-16T21:11:21.437Z,99.51
2023-04-16T21:13:48.002Z,100.00
2023-04-16T21:16:14.645Z,99.78
2023-04-16T21:18:41.511Z,100.00
2023-04-16T21:21:08.086Z,100.00
2023-04-16T21:23:34.630Z,100.00
2023-04-16T21:26:01.251Z,99.97
2023-04-16T21:28:27.670Z,100.00
2023-04-16T21:30:54.212Z,100.00
2023-04-16T21:33:20.827Z,100.00
2023-04-16T21:35:54.035Z,100.00
2023-04-16T21:38:21.911Z,100.00
2023-04-16T21:40:54.101Z,100.00
2023-04-16T21:43:20.803Z,100.00
2023-04-16T21:45:47.357Z,100.00
2023-04-16T21:48:15.373Z,100.00
2023-04-16T21:50:41.830Z,100.00
2023-04-16T21:53:08.372Z,100.00
2023-04-16T21:55:36.202Z,100.00
2023-04-16T21:58:03.820Z,100.00
2023-04-16T22:00:30.317Z,100.00
2023-04-16T22:02:59.973Z,100.00
2023-04-16T22:05:26.712Z,100.00
2023-04-16T22:07:53.192Z,100.00
2023-04-16T22:10:19.704Z,100.00
2023-04-16T22:12:46.482Z,100.00
2023-04-16T22:15:13.921Z,100.00
2023-04-16T22:17:40.918Z,100.00
2023-04-16T22:20:14.561Z,100.00
2023-04-16T22:22:42.059Z,100.00
2023-04-16T22:25:09.750Z,100.00
2023-04-16T22:27:36.603Z,100.00
2023-04-16T22:30:04.024Z,100.00
2023-04-16T22:32:30.942Z,100.00
2023-04-16T22:34:57.675Z,100.00
2023-04-16T22:37:24.447Z,100.00
2023-04-16T22:39:51.310Z,100.00
2023-04-16T22:42:17.754Z,100.00
2023-04-16T22:44:44.270Z,100.00
2023-04-16T22:47:10.797Z,100.00
2023-04-16T22:49:37.266Z,100.00
2023-04-16T22:52:04.119Z,100.00
2023-04-16T22:54:31.072Z,100.00
2023-04-16T22:56:57.964Z,100.00
2023-04-16T22:59:24.949Z,100.00
2023-04-16T23:01:51.893Z,100.00
2023-04-16T23:04:18.540Z,100.00
2023-04-16T23:06:45.036Z,100.00
2023-04-16T23:09:11.697Z,100.00
2023-04-16T23:11:38.272Z,100.00
2023-04-16T23:14:05.328Z,100.00
2023-04-16T23:16:31.960Z,100.00
2023-04-16T23:18:58.827Z,100.00
2023-04-16T23:21:25.915Z,100.00
2023-04-16T23:23:53.294Z,100.00
2023-04-16T23:26:20.257Z,100.00
2023-04-16T23:28:46.879Z,100.00
2023-04-16T23:31:13.447Z,100.00
2023-04-16T23:33:40.118Z,100.00
2023-04-16T23:36:07.269Z,100.00
2023-04-16T23:38:33.736Z,100.00
2023-04-16T23:41:00.374Z,100.00
2023-04-16T23:43:27.193Z,100.00
2023-04-16T23:45:54.407Z,100.00
2023-04-16T23:48:21.262Z,100.00
2023-04-16T23:50:47.946Z,100.00
2023-04-16T23:53:14.956Z,100.00
2023-04-16T23:55:41.671Z,100.00
2023-04-16T23:58:08.254Z,100.00
